createdAt,value
2023-05-22T00:02:30.023Z,1006.61
2023-05-22T00:08:50.026Z,1006.59
2023-05-22T00:15:13.093Z,1006.55
2023-05-22T00:21:32.975Z,1006.49
2023-05-22T00:27:55.992Z,1006.47
2023-05-22T00:34:16.056Z,1006.45
2023-05-22T00:40:39.189Z,1006.39
2023-05-22T00:46:59.051Z,1006.35
2023-05-22T00:53:22.121Z,1006.37
2023-05-22T00:59:41.986Z,1006.39
2023-05-22T01:06:05.010Z,1006.37
2023-05-22T01:12:25.001Z,1006.39
2023-05-22T01:18:48.083Z,1006.39
2023-05-22T01:25:07.977Z,1006.39
2023-05-22T01:31:31.041Z,1006.35
2023-05-22T01:37:50.970Z,1006.39
2023-05-22T01:44:14.012Z,1006.39
2023-05-22T01:50:34.013Z,1006.37
2023-05-22T01:56:57.016Z,1006.41
2023-05-22T02:03:17.135Z,1006.41
2023-05-22T02:09:40.024Z,1006.41
2023-05-22T02:15:59.984Z,1006.43
2023-05-22T02:22:23.023Z,1006.41
2023-05-22T02:28:43.020Z,1006.41
2023-05-22T02:35:06.001Z,1006.33
2023-05-22T02:41:26.001Z,1006.29
2023-05-22T02:47:49.048Z,1006.25
2023-05-22T02:54:08.996Z,1006.21
2023-05-22T03:00:32.013Z,1006.19
2023-05-22T03:06:52.034Z,1006.21
2023-05-22T03:13:15.001Z,1006.21
2023-05-22T03:19:34.973Z,1006.23
2023-05-22T03:25:58.030Z,1006.19
2023-05-22T03:32:18.035Z,1006.21
2023-05-22T03:55:53.098Z,1006.21
2023-05-22T04:02:16.016Z,1006.27
2023-05-22T04:08:35.987Z,1006.27
2023-05-22T04:14:59.019Z,1006.29
2023-05-22T04:21:18.984Z,1006.33
2023-05-22T04:27:41.982Z,1006.37
2023-05-22T04:34:02.200Z,1006.43
2023-05-22T04:40:25.009Z,1006.49
2023-05-22T04:46:45.063Z,1006.57
2023-05-22T04:53:08.027Z,1006.63
2023-05-22T04:59:27.984Z,1006.68
2023-05-22T05:05:50.981Z,1006.68
2023-05-22T05:12:11.011Z,1006.72
2023-05-22T05:18:33.979Z,1006.74
2023-05-22T05:24:54.025Z,1006.74
2023-05-22T05:31:17.032Z,1006.76
2023-05-22T05:37:36.990Z,1006.76
2023-05-22T05:44:00.013Z,1006.8
2023-05-22T05:50:20.040Z,1006.78
2023-05-22T05:56:42.999Z,1006.8
2023-05-22T06:03:03.059Z,1006.88
2023-05-22T06:09:26.136Z,1006.94
2023-05-22T06:15:46.008Z,1006.98
2023-05-22T06:22:09.006Z,1007.04
2023-05-22T06:28:29.021Z,1007.06
2023-05-22T06:34:51.993Z,1007.1
2023-05-22T06:41:11.983Z,1007.12
2023-05-22T06:47:35.039Z,1007.15
2023-05-22T06:53:55.001Z,1007.17
2023-05-22T07:00:19.656Z,1007.21
2023-05-22T07:06:38.258Z,1007.29
2023-05-22T07:13:00.997Z,1007.35
2023-05-22T07:19:21.056Z,1007.39
2023-05-22T07:25:44.037Z,1007.41
2023-05-22T07:32:04.059Z,1007.45
2023-05-22T07:38:27.007Z,1007.45
2023-05-22T07:46:14.003Z,1007.51
2023-05-22T07:52:33.030Z,1007.51
2023-05-22T07:58:55.992Z,1007.54
2023-05-22T08:05:16.106Z,1007.62
2023-05-22T08:11:39.766Z,1007.62
2023-05-22T08:17:59.022Z,1007.64
2023-05-22T08:24:22.169Z,1007.62
2023-05-22T08:30:41.999Z,1007.6
2023-05-22T08:37:05.032Z,1007.58
2023-05-22T08:43:25.219Z,1007.54
2023-05-22T08:49:47.988Z,1007.52
2023-05-22T08:56:08.000Z,1007.51
2023-05-22T09:02:31.206Z,1007.52
2023-05-22T09:08:51.691Z,1007.51
2023-05-22T09:32:34.017Z,1007.54
2023-05-22T09:38:56.994Z,1007.54
2023-05-22T09:45:16.987Z,1007.6
2023-05-22T09:51:40.231Z,1007.58
2023-05-22T09:58:00.137Z,1007.58
2023-05-22T10:04:23.019Z,1007.6
2023-05-22T10:10:43.155Z,1007.62
2023-05-22T10:17:05.983Z,1007.62
2023-05-22T10:23:25.986Z,1007.68
2023-05-22T10:29:49.161Z,1007.66
2023-05-22T10:36:08.982Z,1007.64
2023-05-22T10:42:31.996Z,1007.62
2023-05-22T10:48:52.109Z,1007.6
2023-05-22T10:55:15.209Z,1007.6
2023-05-22T11:01:35.028Z,1007.62
2023-05-22T11:07:58.124Z,1007.64
2023-05-22T11:14:18.018Z,1007.62
2023-05-22T11:20:41.313Z,1007.66
2023-05-22T11:27:01.133Z,1007.64
2023-05-22T11:33:24.032Z,1007.58
2023-05-22T11:39:43.991Z,1007.56
2023-05-22T11:46:07.153Z,1007.49
2023-05-22T11:52:26.993Z,1007.43
2023-05-22T11:58:49.995Z,1007.33
2023-05-22T12:05:10.129Z,1007.31
2023-05-22T12:11:32.982Z,1007.25
2023-05-22T12:17:53.047Z,1007.23
2023-05-22T12:24:16.116Z,1007.21
2023-05-22T12:30:35.988Z,1007.21
2023-05-22T12:36:59.006Z,1007.21
2023-05-22T12:43:19.112Z,1007.13
2023-05-22T12:49:42.021Z,1007.15
2023-05-22T12:56:01.999Z,1007.13
2023-05-22T13:02:25.143Z,1007.1
2023-05-22T13:08:44.999Z,1007.12
2023-05-22T13:15:07.981Z,1007.1
2023-05-22T13:21:28.112Z,1007.13
2023-05-22T13:27:51.000Z,1007.13
2023-05-22T13:34:11.023Z,1007.15
2023-05-22T13:40:34.119Z,1007.1
2023-05-22T13:46:54.000Z,1007.06
2023-05-22T13:53:16.995Z,1007.12
2023-05-22T13:59:37.300Z,1007.17
2023-05-22T14:06:00.255Z,1007.19
2023-05-22T14:12:20.278Z,1007.13
2023-05-22T14:18:43.108Z,1007.1
2023-05-22T14:25:02.994Z,1007.08
2023-05-22T14:31:26.082Z,1007.04
2023-05-22T14:37:46.120Z,1007.02
2023-05-22T14:44:08.996Z,1006.98
2023-05-22T14:50:28.990Z,1006.96
2023-05-22T14:56:52.114Z,1006.88
2023-05-22T15:03:12.127Z,1006.88
2023-05-22T15:26:37.104Z,1006.72
2023-05-22T15:32:59.990Z,1006.63
2023-05-22T15:39:20.001Z,1006.55
2023-05-22T15:45:43.292Z,1006.51
2023-05-22T15:52:03.279Z,1006.45
2023-05-22T15:58:25.995Z,1006.45
2023-05-22T16:04:46.124Z,1006.53
2023-05-22T16:11:08.990Z,1006.59
2023-05-22T16:17:28.987Z,1006.63
2023-05-22T16:23:52.120Z,1006.63
2023-05-22T16:30:12.086Z,1006.66
2023-05-22T16:36:34.986Z,1006.68
2023-05-22T16:42:55.100Z,1006.68
2023-05-22T16:49:18.010Z,1006.68
2023-05-22T16:55:38.296Z,1006.74
2023-05-22T17:02:01.105Z,1006.78
2023-05-22T17:08:20.999Z,1006.84
2023-05-22T17:14:43.986Z,1006.84
2023-05-22T17:21:04.102Z,1006.88
2023-05-22T17:27:35.303Z,1006.9
2023-05-22T17:33:46.978Z,1006.98
2023-05-22T17:40:10.121Z,1006.98
2023-05-22T17:46:30.081Z,1007.08
2023-05-22T17:52:52.994Z,1007.12
2023-05-22T17:59:13.139Z,1007.17
2023-05-22T18:05:36.065Z,1007.31
2023-05-22T18:11:55.991Z,1007.33
2023-05-22T18:18:19.105Z,1007.37
2023-05-22T18:24:38.980Z,1007.37
2023-05-22T18:31:02.004Z,1007.41
2023-05-22T18:37:22.125Z,1007.43
2023-05-22T18:43:45.015Z,1007.45
2023-05-22T18:50:05.010Z,1007.49
2023-05-22T18:56:28.112Z,1007.51
2023-05-22T19:02:48.027Z,1007.51
2023-05-22T19:09:11.001Z,1007.52
2023-05-22T19:15:31.144Z,1007.64
2023-05-22T19:21:54.004Z,1007.72
2023-05-22T19:28:14.000Z,1007.82
2023-05-22T19:34:37.243Z,1007.94
2023-05-22T19:40:56.978Z,1008.14
2023-05-22T19:47:19.987Z,1008.22
2023-05-22T19:53:40.126Z,1008.32
2023-05-22T20:00:03.001Z,1008.39
2023-05-22T20:06:22.986Z,1008.45
2023-05-22T20:12:46.101Z,1008.55
2023-05-22T20:19:06.008Z,1008.65
2023-05-22T20:25:28.993Z,1008.69
2023-05-22T20:31:49.157Z,1008.67
2023-05-22T20:54:55.208Z,1008.61
2023-05-22T21:01:18.001Z,1008.63
2023-05-22T21:07:38.009Z,1008.71
2023-05-22T21:14:01.116Z,1008.73
2023-05-22T21:20:20.979Z,1008.73
2023-05-22T21:26:44.004Z,1008.71
2023-05-22T21:33:04.133Z,1008.69
2023-05-22T21:39:26.989Z,1008.71
2023-05-22T21:45:46.979Z,1008.79
2023-05-22T21:52:10.117Z,1008.86
2023-05-22T21:58:30.008Z,1008.86
2023-05-22T22:21:28.096Z,1009.1
2023-05-22T22:27:47.986Z,1009.12
2023-05-22T22:34:10.976Z,1009.1
2023-05-22T22:40:31.125Z,1009.1
2023-05-22T22:46:53.971Z,1009.1
2023-05-22T22:53:14.002Z,1009.16
2023-05-22T22:59:37.109Z,1009.22
2023-05-22T23:05:57.011Z,1009.28
2023-05-22T23:12:19.978Z,1009.37
2023-05-22T23:18:40.124Z,1009.41
2023-05-22T23:25:02.990Z,1009.47
2023-05-22T23:31:22.985Z,1009.47
2023-05-22T23:37:46.119Z,1009.51
2023-05-22T23:44:05.981Z,1009.55
2023-05-22T23:50:28.975Z,1009.61
2023-05-22T23:56:49.113Z,1009.67
